sensor_id;sensor_type;location;lat;lon;timestamp;P1;durP1;ratioP1;P2;durP2;ratioP2
19579;SDS011;9936;51.040;13.918;2023-02-07T00:02:47;31.67;;;15.67;;
19579;SDS011;9936;51.040;13.918;2023-02-07T00:06:34;32.40;;;15.40;;
19579;SDS011;9936;51.040;13.918;2023-02-07T00:10:20;33.93;;;15.60;;
19579;SDS011;9936;51.040;13.918;2023-02-07T00:14:07;33.83;;;15.60;;
19579;SDS011;9936;51.040;13.918;2023-02-07T00:17:54;28.40;;;14.63;;
19579;SDS011;9936;51.040;13.918;2023-02-07T00:21:39;30.23;;;15.40;;
19579;SDS011;9936;51.040;13.918;2023-02-07T00:25:25;30.53;;;14.00;;
19579;SDS011;9936;51.040;13.918;2023-02-07T00:29:11;30.20;;;15.70;;
19579;SDS011;9936;51.040;13.918;2023-02-07T00:32:57;27.57;;;14.83;;
19579;SDS011;9936;51.040;13.918;2023-02-07T00:36:43;28.43;;;14.77;;
19579;SDS011;9936;51.040;13.918;2023-02-07T00:40:28;26.73;;;14.97;;
19579;SDS011;9936;51.040;13.918;2023-02-07T00:44:14;27.77;;;14.73;;
19579;SDS011;9936;51.040;13.918;2023-02-07T00:48:00;27.70;;;14.30;;
19579;SDS011;9936;51.040;13.918;2023-02-07T00:51:45;32.10;;;14.97;;
19579;SDS011;9936;51.040;13.918;2023-02-07T00:55:31;31.30;;;14.73;;
19579;SDS011;9936;51.040;13.918;2023-02-07T00:59:17;28.97;;;14.53;;
19579;SDS011;9936;51.040;13.918;2023-02-07T01:03:02;28.60;;;14.23;;
19579;SDS011;9936;51.040;13.918;2023-02-07T01:06:48;29.07;;;14.57;;
19579;SDS011;9936;51.040;13.918;2023-02-07T01:10:34;29.53;;;14.60;;
19579;SDS011;9936;51.040;13.918;2023-02-07T01:14:22;32.00;;;14.77;;
19579;SDS011;9936;51.040;13.918;2023-02-07T01:18:08;28.77;;;15.17;;
19579;SDS011;9936;51.040;13.918;2023-02-07T01:26:36;30.77;;;14.47;;
19579;SDS011;9936;51.040;13.918;2023-02-07T01:30:24;30.10;;;14.53;;
19579;SDS011;9936;51.040;13.918;2023-02-07T01:34:10;33.67;;;14.50;;
19579;SDS011;9936;51.040;13.918;2023-02-07T01:37:58;29.23;;;14.40;;
19579;SDS011;9936;51.040;13.918;2023-02-07T12:39:51;27.77;;;13.30;;
19579;SDS011;9936;51.040;13.918;2023-02-07T13:15:01;38.83;;;17.13;;
19579;SDS011;9936;51.040;13.918;2023-02-07T13:23:01;33.57;;;16.50;;
19579;SDS011;9936;51.040;13.918;2023-02-07T13:26:59;27.00;;;13.07;;
19579;SDS011;9936;51.040;13.918;2023-02-07T13:30:51;26.03;;;13.60;;
19579;SDS011;9936;51.040;13.918;2023-02-07T13:34:43;32.50;;;13.20;;
19579;SDS011;9936;51.040;13.918;2023-02-07T13:43:05;24.73;;;13.03;;
19579;SDS011;9936;51.040;13.918;2023-02-07T13:47:06;34.60;;;14.23;;
19579;SDS011;9936;51.040;13.918;2023-02-07T13:51:11;33.57;;;14.40;;
19579;SDS011;9936;51.040;13.918;2023-02-07T13:55:33;31.77;;;13.70;;
19579;SDS011;9936;51.040;13.918;2023-02-07T13:59:32;25.43;;;12.40;;
19579;SDS011;9936;51.040;13.918;2023-02-07T14:03:28;25.10;;;12.57;;
19579;SDS011;9936;51.040;13.918;2023-02-07T14:07:20;32.57;;;15.77;;
19579;SDS011;9936;51.040;13.918;2023-02-07T14:11:56;22.63;;;13.30;;
19579;SDS011;9936;51.040;13.918;2023-02-07T14:19:46;28.67;;;13.07;;
19579;SDS011;9936;51.040;13.918;2023-02-07T14:23:26;27.23;;;14.23;;
19579;SDS011;9936;51.040;13.918;2023-02-07T14:31:27;39.67;;;20.43;;
19579;SDS011;9936;51.040;13.918;2023-02-07T14:39:03;55.43;;;20.03;;
19579;SDS011;9936;51.040;13.918;2023-02-07T14:43:05;65.27;;;24.80;;
19579;SDS011;9936;51.040;13.918;2023-02-07T14:47:00;50.23;;;21.43;;
19579;SDS011;9936;51.040;13.918;2023-02-07T14:50:50;56.07;;;21.87;;
19579;SDS011;9936;51.040;13.918;2023-02-07T14:54:41;43.50;;;20.37;;
19579;SDS011;9936;51.040;13.918;2023-02-07T14:58:41;46.97;;;19.90;;
19579;SDS011;9936;51.040;13.918;2023-02-07T15:06:22;98.73;;;23.87;;
19579;SDS011;9936;51.040;13.918;2023-02-07T15:10:13;49.87;;;21.87;;
19579;SDS011;9936;51.040;13.918;2023-02-07T15:14:13;43.57;;;21.10;;
19579;SDS011;9936;51.040;13.918;2023-02-07T15:18:08;41.90;;;20.00;;
19579;SDS011;9936;51.040;13.918;2023-02-07T15:21:57;38.27;;;20.83;;
19579;SDS011;9936;51.040;13.918;2023-02-07T15:25:43;39.00;;;21.13;;
19579;SDS011;9936;51.040;13.918;2023-02-07T15:29:31;39.30;;;20.57;;
19579;SDS011;9936;51.040;13.918;2023-02-07T15:33:25;42.20;;;24.10;;
19579;SDS011;9936;51.040;13.918;2023-02-07T15:37:23;49.10;;;27.93;;
19579;SDS011;9936;51.040;13.918;2023-02-07T15:41:10;50.70;;;29.63;;
19579;SDS011;9936;51.040;13.918;2023-02-07T15:44:56;52.57;;;27.30;;
19579;SDS011;9936;51.040;13.918;2023-02-07T15:48:46;43.80;;;23.67;;
19579;SDS011;9936;51.040;13.918;2023-02-07T15:52:34;44.03;;;23.30;;
19579;SDS011;9936;51.040;13.918;2023-02-07T15:56:27;42.93;;;23.37;;
19579;SDS011;9936;51.040;13.918;2023-02-07T16:04:02;38.30;;;20.73;;
19579;SDS011;9936;51.040;13.918;2023-02-07T16:07:48;40.60;;;23.10;;
19579;SDS011;9936;51.040;13.918;2023-02-07T16:11:35;41.77;;;22.90;;
19579;SDS011;9936;51.040;13.918;2023-02-07T16:23:00;46.50;;;25.23;;
19579;SDS011;9936;51.040;13.918;2023-02-07T16:26:48;54.70;;;25.10;;
19579;SDS011;9936;51.040;13.918;2023-02-07T16:30:35;54.83;;;30.57;;
19579;SDS011;9936;51.040;13.918;2023-02-07T16:34:22;48.20;;;30.27;;
19579;SDS011;9936;51.040;13.918;2023-02-07T16:38:08;46.27;;;25.83;;
19579;SDS011;9936;51.040;13.918;2023-02-07T16:41:55;43.83;;;25.63;;
19579;SDS011;9936;51.040;13.918;2023-02-07T16:45:45;43.60;;;24.10;;
19579;SDS011;9936;51.040;13.918;2023-02-07T16:49:31;62.37;;;37.70;;
19579;SDS011;9936;51.040;13.918;2023-02-07T16:53:17;45.83;;;26.83;;
19579;SDS011;9936;51.040;13.918;2023-02-07T16:57:03;41.77;;;25.00;;
19579;SDS011;9936;51.040;13.918;2023-02-07T17:00:49;52.43;;;29.90;;
19579;SDS011;9936;51.040;13.918;2023-02-07T17:04:34;57.73;;;33.77;;
19579;SDS011;9936;51.040;13.918;2023-02-07T17:08:20;58.87;;;31.90;;
19579;SDS011;9936;51.040;13.918;2023-02-07T17:12:10;48.83;;;25.70;;
19579;SDS011;9936;51.040;13.918;2023-02-07T17:15:58;47.70;;;26.00;;
19579;SDS011;9936;51.040;13.918;2023-02-07T17:19:44;42.97;;;29.37;;
19579;SDS011;9936;51.040;13.918;2023-02-07T17:23:32;46.43;;;26.73;;
19579;SDS011;9936;51.040;13.918;2023-02-07T17:27:18;46.33;;;27.20;;
19579;SDS011;9936;51.040;13.918;2023-02-07T17:31:03;46.20;;;25.83;;
19579;SDS011;9936;51.040;13.918;2023-02-07T17:34:49;50.17;;;28.73;;
19579;SDS011;9936;51.040;13.918;2023-02-07T17:38:34;59.97;;;29.60;;
19579;SDS011;9936;51.040;13.918;2023-02-07T17:42:20;49.13;;;28.20;;
19579;SDS011;9936;51.040;13.918;2023-02-07T17:50:00;50.10;;;28.40;;
19579;SDS011;9936;51.040;13.918;2023-02-07T17:53:48;46.40;;;27.30;;
19579;SDS011;9936;51.040;13.918;2023-02-07T17:57:33;48.47;;;26.93;;
19579;SDS011;9936;51.040;13.918;2023-02-07T18:01:19;50.20;;;28.70;;
19579;SDS011;9936;51.040;13.918;2023-02-07T18:05:14;49.43;;;27.30;;
19579;SDS011;9936;51.040;13.918;2023-02-07T18:09:01;49.83;;;27.73;;
19579;SDS011;9936;51.040;13.918;2023-02-07T18:12:46;54.00;;;29.63;;
19579;SDS011;9936;51.040;13.918;2023-02-07T18:16:34;52.13;;;29.07;;
19579;SDS011;9936;51.040;13.918;2023-02-07T18:20:22;45.80;;;26.70;;
19579;SDS011;9936;51.040;13.918;2023-02-07T18:24:12;43.63;;;25.30;;
19579;SDS011;9936;51.040;13.918;2023-02-07T18:31:46;43.97;;;24.37;;
19579;SDS011;9936;51.040;13.918;2023-02-07T18:35:32;45.33;;;25.67;;
19579;SDS011;9936;51.040;13.918;2023-02-07T18:39:18;43.53;;;24.70;;
19579;SDS011;9936;51.040;13.918;2023-02-07T18:43:03;48.73;;;24.90;;
19579;SDS011;9936;51.040;13.918;2023-02-07T18:46:50;44.10;;;24.47;;
19579;SDS011;9936;51.040;13.918;2023-02-07T18:50:40;46.87;;;24.93;;
19579;SDS011;9936;51.040;13.918;2023-02-07T18:58:14;44.13;;;25.63;;
19579;SDS011;9936;51.040;13.918;2023-02-07T19:02:00;44.77;;;25.60;;
19579;SDS011;9936;51.040;13.918;2023-02-07T19:05:47;43.63;;;23.90;;
19579;SDS011;9936;51.040;13.918;2023-02-07T19:09:33;44.03;;;23.30;;
19579;SDS011;9936;51.040;13.918;2023-02-07T19:13:19;41.73;;;23.47;;
19579;SDS011;9936;51.040;13.918;2023-02-07T19:17:19;48.00;;;23.27;;
19579;SDS011;9936;51.040;13.918;2023-02-07T19:25:53;43.57;;;23.67;;
19579;SDS011;9936;51.040;13.918;2023-02-07T19:29:39;40.63;;;24.00;;
19579;SDS011;9936;51.040;13.918;2023-02-07T19:33:24;44.00;;;24.33;;
19579;SDS011;9936;51.040;13.918;2023-02-07T19:37:10;41.40;;;24.20;;
19579;SDS011;9936;51.040;13.918;2023-02-07T19:40:56;41.23;;;21.93;;
19579;SDS011;9936;51.040;13.918;2023-02-07T19:44:51;46.40;;;23.40;;
19579;SDS011;9936;51.040;13.918;2023-02-07T19:48:50;41.60;;;22.07;;
19579;SDS011;9936;51.040;13.918;2023-02-07T19:52:36;44.87;;;23.43;;
19579;SDS011;9936;51.040;13.918;2023-02-07T19:56:23;44.93;;;23.40;;
19579;SDS011;9936;51.040;13.918;2023-02-07T20:00:10;39.67;;;21.83;;
19579;SDS011;9936;51.040;13.918;2023-02-07T20:03:56;45.40;;;22.70;;
19579;SDS011;9936;51.040;13.918;2023-02-07T20:07:43;52.57;;;27.07;;
19579;SDS011;9936;51.040;13.918;2023-02-07T20:11:34;82.37;;;37.60;;
19579;SDS011;9936;51.040;13.918;2023-02-07T20:15:21;69.03;;;33.30;;
19579;SDS011;9936;51.040;13.918;2023-02-07T20:19:06;60.70;;;32.70;;
19579;SDS011;9936;51.040;13.918;2023-02-07T20:22:52;73.17;;;34.83;;
19579;SDS011;9936;51.040;13.918;2023-02-07T20:26:39;61.60;;;31.37;;
19579;SDS011;9936;51.040;13.918;2023-02-07T20:30:27;68.10;;;30.10;;
19579;SDS011;9936;51.040;13.918;2023-02-07T20:34:13;64.53;;;31.10;;
19579;SDS011;9936;51.040;13.918;2023-02-07T20:37:59;64.50;;;30.20;;
19579;SDS011;9936;51.040;13.918;2023-02-07T20:41:46;60.57;;;30.70;;
19579;SDS011;9936;51.040;13.918;2023-02-07T20:45:33;45.10;;;24.03;;
19579;SDS011;9936;51.040;13.918;2023-02-07T20:49:23;58.43;;;26.67;;
19579;SDS011;9936;51.040;13.918;2023-02-07T20:53:13;75.23;;;32.30;;
19579;SDS011;9936;51.040;13.918;2023-02-07T20:56:59;64.00;;;28.23;;
19579;SDS011;9936;51.040;13.918;2023-02-07T21:00:45;91.67;;;34.07;;
19579;SDS011;9936;51.040;13.918;2023-02-07T21:04:31;61.83;;;27.13;;
19579;SDS011;9936;51.040;13.918;2023-02-07T21:08:18;50.03;;;24.57;;
19579;SDS011;9936;51.040;13.918;2023-02-07T21:12:04;50.20;;;24.30;;
19579;SDS011;9936;51.040;13.918;2023-02-07T21:15:50;41.33;;;22.17;;
19579;SDS011;9936;51.040;13.918;2023-02-07T21:19:36;43.67;;;22.90;;
19579;SDS011;9936;51.040;13.918;2023-02-07T21:27:15;43.07;;;22.07;;
19579;SDS011;9936;51.040;13.918;2023-02-07T21:31:05;44.87;;;24.07;;
19579;SDS011;9936;51.040;13.918;2023-02-07T21:34:52;48.10;;;24.67;;
19579;SDS011;9936;51.040;13.918;2023-02-07T21:38:38;47.33;;;24.97;;
19579;SDS011;9936;51.040;13.918;2023-02-07T21:42:24;53.63;;;26.83;;
19579;SDS011;9936;51.040;13.918;2023-02-07T21:46:11;49.43;;;25.10;;
19579;SDS011;9936;51.040;13.918;2023-02-07T21:50:02;48.73;;;24.30;;
19579;SDS011;9936;51.040;13.918;2023-02-07T21:53:48;47.43;;;25.47;;
19579;SDS011;9936;51.040;13.918;2023-02-07T21:57:35;51.43;;;26.50;;
19579;SDS011;9936;51.040;13.918;2023-02-07T22:01:21;46.93;;;26.10;;
19579;SDS011;9936;51.040;13.918;2023-02-07T22:05:07;50.80;;;26.33;;
19579;SDS011;9936;51.040;13.918;2023-02-07T22:08:54;50.27;;;26.57;;
19579;SDS011;9936;51.040;13.918;2023-02-07T22:12:43;45.67;;;24.70;;
19579;SDS011;9936;51.040;13.918;2023-02-07T22:16:29;48.57;;;25.73;;
19579;SDS011;9936;51.040;13.918;2023-02-07T22:20:16;50.07;;;25.53;;
19579;SDS011;9936;51.040;13.918;2023-02-07T22:24:02;50.53;;;26.57;;
19579;SDS011;9936;51.040;13.918;2023-02-07T22:27:49;51.80;;;26.70;;
19579;SDS011;9936;51.040;13.918;2023-02-07T22:31:35;57.00;;;28.93;;
19579;SDS011;9936;51.040;13.918;2023-02-07T22:35:22;62.33;;;31.50;;
19579;SDS011;9936;51.040;13.918;2023-02-07T22:39:09;51.77;;;28.10;;
19579;SDS011;9936;51.040;13.918;2023-02-07T22:42:55;53.37;;;26.37;;
19579;SDS011;9936;51.040;13.918;2023-02-07T22:46:41;51.23;;;27.33;;
19579;SDS011;9936;51.040;13.918;2023-02-07T22:50:27;54.53;;;27.67;;
19579;SDS011;9936;51.040;13.918;2023-02-07T22:54:14;53.33;;;27.50;;
19579;SDS011;9936;51.040;13.918;2023-02-07T22:58:01;54.83;;;26.70;;
19579;SDS011;9936;51.040;13.918;2023-02-07T23:01:47;53.83;;;27.23;;
19579;SDS011;9936;51.040;13.918;2023-02-07T23:05:35;50.63;;;26.80;;
19579;SDS011;9936;51.040;13.918;2023-02-07T23:09:21;58.97;;;27.37;;
19579;SDS011;9936;51.040;13.918;2023-02-07T23:13:07;52.60;;;26.07;;
19579;SDS011;9936;51.040;13.918;2023-02-07T23:16:53;58.80;;;28.40;;
19579;SDS011;9936;51.040;13.918;2023-02-07T23:20:40;56.73;;;26.70;;
19579;SDS011;9936;51.040;13.918;2023-02-07T23:24:27;51.97;;;26.37;;
19579;SDS011;9936;51.040;13.918;2023-02-07T23:28:13;50.50;;;26.83;;
19579;SDS011;9936;51.040;13.918;2023-02-07T23:31:58;57.63;;;27.97;;
19579;SDS011;9936;51.040;13.918;2023-02-07T23:35:44;58.63;;;27.17;;
19579;SDS011;9936;51.040;13.918;2023-02-07T23:39:30;61.33;;;28.23;;
19579;SDS011;9936;51.040;13.918;2023-02-07T23:43:15;55.80;;;28.73;;
19579;SDS011;9936;51.040;13.918;2023-02-07T23:47:01;57.93;;;27.43;;
19579;SDS011;9936;51.040;13.918;2023-02-07T23:50:52;61.40;;;28.27;;
19579;SDS011;9936;51.040;13.918;2023-02-07T23:54:39;55.87;;;27.03;;
19579;SDS011;9936;51.040;13.918;2023-02-07T23:58:25;55.70;;;26.43;;
